sensor_id;sensor_type;location;lat;lon;timestamp;pressure;altitude;pressure_sealevel;temperature;humidity
48027;BME280;50714;49.208;5.364;2023-03-04T00:06:17;100244.25;;;2.28;57.83
48027;BME280;50714;49.208;5.364;2023-03-04T00:16:18;100241.03;;;2.04;57.36
48027;BME280;50714;49.208;5.364;2023-03-04T00:26:18;100235.00;;;2.02;57.78
48027;BME280;50714;49.208;5.364;2023-03-04T00:36:18;100242.50;;;1.97;57.69
48027;BME280;50714;49.208;5.364;2023-03-04T00:46:19;100246.66;;;1.90;57.73
48027;BME280;50714;49.208;5.364;2023-03-04T00:56:19;100247.91;;;1.86;57.50
48027;BME280;50714;49.208;5.364;2023-03-04T01:06:19;100243.31;;;1.88;57.46
48027;BME280;50714;49.208;5.364;2023-03-04T01:16:20;100230.00;;;1.88;57.79
48027;BME280;50714;49.208;5.364;2023-03-04T01:26:20;100217.25;;;1.91;57.75
48027;BME280;50714;49.208;5.364;2023-03-04T01:36:21;100209.34;;;1.80;58.68
48027;BME280;50714;49.208;5.364;2023-03-04T01:46:22;100200.31;;;1.71;58.48
48027;BME280;50714;49.208;5.364;2023-03-04T01:56:36;100194.69;;;1.65;60.19
48027;BME280;50714;49.208;5.364;2023-03-04T02:06:38;100189.81;;;1.49;59.03
48027;BME280;50714;49.208;5.364;2023-03-04T02:16:39;100183.88;;;1.25;58.45
48027;BME280;50714;49.208;5.364;2023-03-04T02:26:40;100173.78;;;1.08;58.63
48027;BME280;50714;49.208;5.364;2023-03-04T02:36:43;100181.97;;;0.84;58.94
48027;BME280;50714;49.208;5.364;2023-03-04T02:46:45;100180.81;;;0.54;59.40
48027;BME280;50714;49.208;5.364;2023-03-04T02:56:47;100177.56;;;0.40;59.11
48027;BME280;50714;49.208;5.364;2023-03-04T03:06:48;100182.63;;;0.31;60.03
48027;BME280;50714;49.208;5.364;2023-03-04T03:16:48;100179.59;;;0.03;59.07
48027;BME280;50714;49.208;5.364;2023-03-04T03:26:49;100186.13;;;-0.02;60.08
48027;BME280;50714;49.208;5.364;2023-03-04T03:36:49;100179.13;;;-0.14;60.74
48027;BME280;50714;49.208;5.364;2023-03-04T03:46:49;100176.94;;;-0.31;60.20
48027;BME280;50714;49.208;5.364;2023-03-04T03:56:50;100172.97;;;-0.25;59.95
48027;BME280;50714;49.208;5.364;2023-03-04T04:06:50;100175.84;;;-0.28;61.80
48027;BME280;50714;49.208;5.364;2023-03-04T04:16:50;100200.41;;;-0.38;60.57
48027;BME280;50714;49.208;5.364;2023-03-04T04:26:51;100196.41;;;-0.43;60.72
48027;BME280;50714;49.208;5.364;2023-03-04T04:36:51;100191.88;;;-0.65;61.24
48027;BME280;50714;49.208;5.364;2023-03-04T04:46:51;100197.06;;;-0.63;61.21
48027;BME280;50714;49.208;5.364;2023-03-04T04:56:52;100202.56;;;-0.78;61.19
48027;BME280;50714;49.208;5.364;2023-03-04T05:06:52;100205.44;;;-0.81;60.46
48027;BME280;50714;49.208;5.364;2023-03-04T05:16:52;100212.53;;;-0.81;61.06
48027;BME280;50714;49.208;5.364;2023-03-04T05:26:53;100201.53;;;-1.12;61.93
48027;BME280;50714;49.208;5.364;2023-03-04T05:36:53;100208.38;;;-1.20;62.47
48027;BME280;50714;49.208;5.364;2023-03-04T05:46:53;100208.38;;;-1.20;62.55
48027;BME280;50714;49.208;5.364;2023-03-04T05:56:54;100217.31;;;-1.10;62.48
48027;BME280;50714;49.208;5.364;2023-03-04T06:06:54;100220.25;;;-1.26;62.84
48027;BME280;50714;49.208;5.364;2023-03-04T06:16:54;100224.25;;;-1.20;62.54
48027;BME280;50714;49.208;5.364;2023-03-04T06:26:55;100234.69;;;-1.43;62.81
48027;BME280;50714;49.208;5.364;2023-03-04T06:36:55;100240.69;;;-1.28;63.40
48027;BME280;50714;49.208;5.364;2023-03-04T06:46:55;100261.38;;;-1.46;63.54
48027;BME280;50714;49.208;5.364;2023-03-04T06:56:56;100271.09;;;-1.21;63.39
48027;BME280;50714;49.208;5.364;2023-03-04T07:06:57;100273.28;;;-1.15;64.33
48027;BME280;50714;49.208;5.364;2023-03-04T07:16:57;100283.69;;;-0.64;63.97
48027;BME280;50714;49.208;5.364;2023-03-04T07:26:57;100293.19;;;-0.49;63.77
48027;BME280;50714;49.208;5.364;2023-03-04T07:36:58;100302.84;;;0.45;63.50
48027;BME280;50714;49.208;5.364;2023-03-04T07:46:58;100295.38;;;2.22;63.14
48027;BME280;50714;49.208;5.364;2023-03-04T07:56:58;100305.00;;;5.06;59.06
48027;BME280;50714;49.208;5.364;2023-03-04T08:06:59;100301.69;;;6.20;55.46
48027;BME280;50714;49.208;5.364;2023-03-04T08:16:59;100309.19;;;7.28;55.64
48027;BME280;50714;49.208;5.364;2023-03-04T08:27:00;100310.50;;;8.64;53.11
48027;BME280;50714;49.208;5.364;2023-03-04T08:37:00;100313.81;;;10.89;51.79
48027;BME280;50714;49.208;5.364;2023-03-04T08:47:01;100311.72;;;12.22;49.84
48027;BME280;50714;49.208;5.364;2023-03-04T08:57:01;100309.41;;;11.98;48.21
48027;BME280;50714;49.208;5.364;2023-03-04T09:07:03;100312.03;;;11.55;47.11
48027;BME280;50714;49.208;5.364;2023-03-04T09:17:04;100297.41;;;11.85;48.44
48027;BME280;50714;49.208;5.364;2023-03-04T09:27:05;100312.38;;;10.86;45.72
48027;BME280;50714;49.208;5.364;2023-03-04T09:37:05;100309.34;;;8.58;47.38
48027;BME280;50714;49.208;5.364;2023-03-04T09:47:11;100299.53;;;7.09;49.53
48027;BME280;50714;49.208;5.364;2023-03-04T09:57:29;100311.34;;;6.57;51.71
48027;BME280;50714;49.208;5.364;2023-03-04T10:07:36;100315.34;;;6.09;52.22
48027;BME280;50714;49.208;5.364;2023-03-04T10:17:42;100315.31;;;5.91;52.68
48027;BME280;50714;49.208;5.364;2023-03-04T10:27:49;100313.03;;;5.96;53.00
48027;BME280;50714;49.208;5.364;2023-03-04T10:37:50;100312.03;;;5.97;52.81
48027;BME280;50714;49.208;5.364;2023-03-04T10:47:53;100302.78;;;5.92;53.50
48027;BME280;50714;49.208;5.364;2023-03-04T10:58:04;100298.03;;;6.03;53.39
48027;BME280;50714;49.208;5.364;2023-03-04T11:08:20;100297.88;;;6.05;54.39
48027;BME280;50714;49.208;5.364;2023-03-04T11:18:47;100295.16;;;6.23;54.52
48027;BME280;50714;49.208;5.364;2023-03-04T11:50:02;100270.06;;;6.49;53.92
48027;BME280;50714;49.208;5.364;2023-03-04T12:21:19;100244.16;;;6.66;54.39
48027;BME280;50714;49.208;5.364;2023-03-04T12:31:28;100223.13;;;6.79;53.35
48027;BME280;50714;49.208;5.364;2023-03-04T12:51:53;100205.72;;;6.92;53.30
48027;BME280;50714;49.208;5.364;2023-03-04T13:12:19;100186.25;;;6.90;52.85
48027;BME280;50714;49.208;5.364;2023-03-04T13:32:38;100174.00;;;6.87;53.33
48027;BME280;50714;49.208;5.364;2023-03-04T13:42:41;100159.59;;;6.96;53.19
48027;BME280;50714;49.208;5.364;2023-03-04T13:52:42;100161.28;;;6.97;53.63
48027;BME280;50714;49.208;5.364;2023-03-04T14:02:43;100143.53;;;7.12;53.25
48027;BME280;50714;49.208;5.364;2023-03-04T14:12:47;100143.22;;;7.24;53.28
48027;BME280;50714;49.208;5.364;2023-03-04T14:22:48;100131.81;;;7.22;53.59
48027;BME280;50714;49.208;5.364;2023-03-04T14:32:51;100131.31;;;7.18;53.02
48027;BME280;50714;49.208;5.364;2023-03-04T14:42:59;100125.75;;;7.11;53.42
48027;BME280;50714;49.208;5.364;2023-03-04T15:03:24;100109.63;;;6.95;53.37
48027;BME280;50714;49.208;5.364;2023-03-04T15:23:40;100101.56;;;6.79;53.41
48027;BME280;50714;49.208;5.364;2023-03-04T15:33:40;100107.88;;;6.70;53.56
48027;BME280;50714;49.208;5.364;2023-03-04T15:43:40;100096.47;;;6.60;53.36
48027;BME280;50714;49.208;5.364;2023-03-04T15:53:43;100104.31;;;6.53;53.73
48027;BME280;50714;49.208;5.364;2023-03-04T16:03:45;100095.25;;;6.46;53.63
48027;BME280;50714;49.208;5.364;2023-03-04T16:13:46;100087.34;;;6.36;53.96
48027;BME280;50714;49.208;5.364;2023-03-04T16:23:48;100093.34;;;6.30;54.11
48027;BME280;50714;49.208;5.364;2023-03-04T16:33:50;100088.63;;;6.24;54.57
48027;BME280;50714;49.208;5.364;2023-03-04T16:43:50;100093.78;;;6.18;54.77
48027;BME280;50714;49.208;5.364;2023-03-04T16:53:53;100084.41;;;6.13;54.91
48027;BME280;50714;49.208;5.364;2023-03-04T17:03:55;100079.69;;;6.07;55.05
48027;BME280;50714;49.208;5.364;2023-03-04T17:13:55;100083.00;;;6.01;55.00
48027;BME280;50714;49.208;5.364;2023-03-04T17:23:56;100088.97;;;5.95;55.27
48027;BME280;50714;49.208;5.364;2023-03-04T17:33:56;100088.47;;;5.92;55.05
48027;BME280;50714;49.208;5.364;2023-03-04T17:43:56;100107.06;;;5.93;55.90
48027;BME280;50714;49.208;5.364;2023-03-04T17:53:57;100107.78;;;5.77;56.21
48027;BME280;50714;49.208;5.364;2023-03-04T18:04:00;100104.19;;;5.69;56.51
48027;BME280;50714;49.208;5.364;2023-03-04T18:14:00;100100.63;;;5.60;56.71
48027;BME280;50714;49.208;5.364;2023-03-04T18:24:01;100092.75;;;5.59;57.18
48027;BME280;50714;49.208;5.364;2023-03-04T18:34:02;100095.22;;;5.52;57.27
48027;BME280;50714;49.208;5.364;2023-03-04T18:44:03;100092.47;;;5.44;57.98
48027;BME280;50714;49.208;5.364;2023-03-04T18:54:05;100088.28;;;5.41;58.27
48027;BME280;50714;49.208;5.364;2023-03-04T19:04:05;100097.31;;;5.40;58.54
48027;BME280;50714;49.208;5.364;2023-03-04T19:14:06;100096.09;;;5.35;59.07
48027;BME280;50714;49.208;5.364;2023-03-04T19:24:06;100101.66;;;5.24;59.34
48027;BME280;50714;49.208;5.364;2023-03-04T19:34:07;100084.78;;;5.23;59.60
48027;BME280;50714;49.208;5.364;2023-03-04T19:44:07;100084.84;;;5.31;59.57
48027;BME280;50714;49.208;5.364;2023-03-04T19:54:08;100089.78;;;5.44;59.96
48027;BME280;50714;49.208;5.364;2023-03-04T20:04:12;100084.84;;;5.31;60.85
48027;BME280;50714;49.208;5.364;2023-03-04T20:14:12;100075.97;;;5.31;60.92
48027;BME280;50714;49.208;5.364;2023-03-04T20:24:13;100068.41;;;5.26;61.24
48027;BME280;50714;49.208;5.364;2023-03-04T20:34:14;100070.66;;;5.13;60.99
48027;BME280;50714;49.208;5.364;2023-03-04T20:44:14;100069.38;;;5.17;62.18
48027;BME280;50714;49.208;5.364;2023-03-04T20:54:15;100075.31;;;5.11;62.57
48027;BME280;50714;49.208;5.364;2023-03-04T21:04:16;100051.63;;;5.16;62.35
48027;BME280;50714;49.208;5.364;2023-03-04T21:24:24;100053.38;;;5.07;62.91
48027;BME280;50714;49.208;5.364;2023-03-04T21:34:42;100069.97;;;5.11;65.04
48027;BME280;50714;49.208;5.364;2023-03-04T21:44:44;100051.56;;;4.90;63.33
48027;BME280;50714;49.208;5.364;2023-03-04T21:54:45;100045.44;;;4.80;63.96
48027;BME280;50714;49.208;5.364;2023-03-04T22:04:46;100041.09;;;4.79;64.26
48027;BME280;50714;49.208;5.364;2023-03-04T22:14:48;100032.78;;;4.82;65.04
48027;BME280;50714;49.208;5.364;2023-03-04T22:24:48;100026.03;;;4.78;64.52
48027;BME280;50714;49.208;5.364;2023-03-04T22:34:49;100024.31;;;4.69;64.77
48027;BME280;50714;49.208;5.364;2023-03-04T22:44:49;100014.31;;;4.71;64.50
48027;BME280;50714;49.208;5.364;2023-03-04T22:54:49;100009.72;;;4.63;64.90
48027;BME280;50714;49.208;5.364;2023-03-04T23:04:50;100008.03;;;4.62;65.80
48027;BME280;50714;49.208;5.364;2023-03-04T23:14:50;99986.41;;;4.56;66.39
48027;BME280;50714;49.208;5.364;2023-03-04T23:24:50;99989.63;;;4.59;66.34
48027;BME280;50714;49.208;5.364;2023-03-04T23:34:51;99978.84;;;4.51;66.16
48027;BME280;50714;49.208;5.364;2023-03-04T23:44:52;99969.31;;;4.49;66.56
48027;BME280;50714;49.208;5.364;2023-03-04T23:54:53;99953.78;;;4.52;67.13
